Time;durP1;ratioP1;P1;durP2;ratioP2;P2;SDS_P1;SDS_P2;PMS_P1;PMS_P2;Temp;Humidity;BMP_temperature;BMP_pressure;BME280_temperature;BME280_humidity;BME280_pressure;Samples;Min_cycle;Max_cycle;Signal;HPM_P1;HPM_P2
2021/12/14 00:00:26;;;;;;;;;;;;;;;0.36;100.00;100755.22;5004918;28;19960;-82
2021/12/14 00:02:52;;;;;;;;;;;;;;;0.29;100.00;100758.94;5001953;28;19918;-83
2021/12/14 00:05:20;;;;;;;;;;;;;;;0.25;100.00;100749.53;5004857;28;20262;-82
2021/12/14 00:07:45;;;;;;;;;;;;;;;0.21;100.00;100753.16;5002074;28;19964;-83
2021/12/14 00:10:27;;;;;;;;;;;;;;;0.22;100.00;100748.81;5000427;28;20259;-83
2021/12/14 00:12:58;;;;;;;;;;;;;;;0.18;100.00;100742.00;4999221;28;19917;-83
2021/12/14 00:15:23;;;;;;;;;;;;;;;0.17;100.00;100746.38;5002593;28;19918;-82
2021/12/14 00:17:53;;;;;;;;;;;;;;;0.18;100.00;100748.03;5027491;28;19940;-83
2021/12/14 00:20:21;;;;;;;;;;;;;;;0.18;100.00;100740.25;5001597;28;20029;-83
2021/12/14 00:25:41;;;;;;;;;;;;;;;0.11;100.00;100751.75;5004142;28;19924;-83
2021/12/14 00:28:09;;;;;;;;;;;;;;;0.11;100.00;100758.69;5003730;28;19932;-82
2021/12/14 00:30:35;;;;;;;;;;;;;;;0.13;100.00;100757.72;5001794;28;19924;-82
2021/12/14 00:33:01;;;;;;;;;;;;;;;0.16;100.00;100756.78;5002664;28;19917;-81
2021/12/14 00:35:27;;;;;;;;;;;;;;;0.16;100.00;100756.78;5003059;28;20345;-82
2021/12/14 00:37:53;;;;;;;;;;;;;;;0.17;100.00;100754.16;5001641;28;19919;-82
2021/12/14 00:40:22;;;;;;;;;;;;;;;0.19;100.00;100754.94;5027596;28;19925;-82
2021/12/14 00:42:48;;;;;;;;;;;;;;;0.20;100.00;100751.44;4999960;28;20378;-83
2021/12/14 00:45:14;;;;;;;;;;;;;;;0.20;100.00;100743.66;5000505;28;19924;-83
2021/12/14 00:47:40;;;;;;;;;;;;;;;0.20;100.00;100754.03;5003942;28;19917;-83
2021/12/14 00:50:07;;;;;;;;;;;;;;;0.23;100.00;100745.31;5000101;28;20060;-83
2021/12/14 00:52:32;;;;;;;;;;;;;;;0.22;100.00;100744.47;5002033;28;20020;-83
2021/12/14 00:54:58;;;;;;;;;;;;;;;0.24;100.00;100747.00;5002329;28;19924;-83
2021/12/14 00:57:23;;;;;;;;;;;;;;;0.23;100.00;100755.69;5002391;28;20312;-83
2021/12/14 00:59:49;;;;;;;;;;;;;;;0.22;100.00;100747.06;5000901;28;19922;-82
2021/12/14 01:02:19;;;;;;;;;;;;;;;0.23;100.00;100746.16;5002346;28;19914;-83
2021/12/14 01:04:51;;;;;;;;;;;;;;;0.19;100.00;100744.53;4997143;28;19925;-83
2021/12/14 01:07:18;;;;;;;;;;;;;;;0.22;100.00;100754.84;4997937;28;19917;-81
2021/12/14 01:09:46;;;;;;;;;;;;;;;0.20;100.00;100750.59;4997337;28;19918;-82
2021/12/14 01:12:27;;;;;;;;;;;;;;;0.10;100.00;100760.41;5001233;28;20030;-82
2021/12/14 01:15:11;;;;;;;;;;;;;;;-0.02;100.00;100755.59;4995997;28;19914;-82
2021/12/14 01:17:55;;;;;;;;;;;;;;;-0.01;100.00;100759.91;5001421;28;19921;-83
2021/12/14 01:20:21;;;;;;;;;;;;;;;-0.03;100.00;100764.28;5003816;28;19920;-82
2021/12/14 01:22:54;;;;;;;;;;;;;;;-0.07;100.00;100765.28;5000974;28;20437;-82
2021/12/14 01:25:26;;;;;;;;;;;;;;;-0.22;100.00;100768.31;5024439;28;20079;-82
2021/12/14 01:27:54;;;;;;;;;;;;;;;-0.45;100.00;100762.06;5001735;28;19925;-82
2021/12/14 01:30:23;;;;;;;;;;;;;;;-0.46;100.00;100760.38;4999854;28;20012;-81
2021/12/14 01:32:50;;;;;;;;;;;;;;;-0.39;100.00;100767.97;5026758;28;19999;-82
2021/12/14 01:35:21;;;;;;;;;;;;;;;-0.31;100.00;100760.81;4998630;28;19918;-81
2021/12/14 01:37:59;;;;;;;;;;;;;;;-0.26;100.00;100757.19;5004089;28;19929;-82
2021/12/14 01:40:52;;;;;;;;;;;;;;;-0.21;100.00;100754.47;5000119;28;19929;-82
2021/12/14 01:43:15;;;;;;;;;;;;;;;-0.22;100.00;100752.75;4991822;28;19964;-82
2021/12/14 01:45:40;;;;;;;;;;;;;;;-0.21;100.00;100754.47;5000887;28;19960;-81
2021/12/14 01:48:06;;;;;;;;;;;;;;;-0.23;100.00;100753.66;5025625;28;19984;-82
2021/12/14 01:50:48;;;;;;;;;;;;;;;-0.30;100.00;100759.94;4998185;28;19924;-82
2021/12/14 01:53:26;;;;;;;;;;;;;;;-0.28;100.00;100764.16;4998662;28;19992;-82
2021/12/14 01:55:54;;;;;;;;;;;;;;;-0.22;100.00;100755.34;5004903;28;20024;-82
2021/12/14 01:58:23;;;;;;;;;;;;;;;-0.20;100.00;100761.34;4998958;28;19996;-82
2021/12/14 02:01:00;;;;;;;;;;;;;;;-0.22;100.00;100760.53;4999455;28;19918;-82
2021/12/14 02:03:39;;;;;;;;;;;;;;;-0.27;100.00;100760.69;5003113;28;19925;-82
2021/12/14 02:06:06;;;;;;;;;;;;;;;-0.30;100.00;100765.13;5001279;28;19924;-83
2021/12/14 02:08:33;;;;;;;;;;;;;;;-0.29;100.00;100766.78;5001512;28;19917;-82
2021/12/14 02:11:02;;;;;;;;;;;;;;;-0.29;100.00;100770.25;4984191;28;19917;-82
2021/12/14 02:13:35;;;;;;;;;;;;;;;-0.39;100.00;100760.19;5002896;28;19928;-83
2021/12/14 02:16:03;;;;;;;;;;;;;;;-0.42;100.00;100762.00;5001895;28;19918;-83
2021/12/14 02:18:29;;;;;;;;;;;;;;;-0.41;100.00;100763.66;4988541;28;19917;-83
2021/12/14 02:21:07;;;;;;;;;;;;;;;-0.38;100.00;100767.94;5003137;28;20004;-82
2021/12/14 02:23:35;;;;;;;;;;;;;;;-0.39;100.00;100765.38;5004841;28;20324;-82
2021/12/14 02:26:03;;;;;;;;;;;;;;;-0.39;100.00;100767.97;5005490;28;19918;-83
2021/12/14 02:28:29;;;;;;;;;;;;;;;-0.38;100.00;100767.06;5005904;28;19964;-82
2021/12/14 02:30:56;;;;;;;;;;;;;;;-0.41;100.00;100773.19;5027812;28;19922;-81
2021/12/14 02:33:23;;;;;;;;;;;;;;;-0.47;100.00;100774.22;5030061;28;19917;-82
2021/12/14 02:35:49;;;;;;;;;;;;;;;-0.58;100.00;100770.22;5004042;28;19918;-82
2021/12/14 02:38:17;;;;;;;;;;;;;;;-0.71;100.00;100784.44;5006528;28;19957;-81
2021/12/14 02:40:57;;;;;;;;;;;;;;;-0.82;100.00;100776.94;5017230;28;19925;-82
2021/12/14 02:43:51;;;;;;;;;;;;;;;-0.84;100.00;100778.75;5003774;28;19917;-83
2021/12/14 02:46:21;;;;;;;;;;;;;;;-0.79;100.00;100771.69;5000039;28;19918;-83
2021/12/14 02:48:49;;;;;;;;;;;;;;;-0.72;100.00;100783.59;5029985;28;19917;-82
2021/12/14 02:51:18;;;;;;;;;;;;;;;-0.67;100.00;100781.72;5002033;28;19984;-82
2021/12/14 02:53:44;;;;;;;;;;;;;;;-0.66;100.00;100773.06;4998098;28;19922;-81
2021/12/14 02:56:11;;;;;;;;;;;;;;;-0.65;100.00;100774.75;5004777;28;20014;-82
2021/12/14 02:58:37;;;;;;;;;;;;;;;-0.65;100.00;100772.19;5027128;28;20296;-82
2021/12/14 03:01:04;;;;;;;;;;;;;;;-0.68;100.00;100771.38;5003449;28;19918;-82
2021/12/14 03:03:30;;;;;;;;;;;;;;;-0.76;100.00;100766.41;5027858;28;19925;-82
2021/12/14 03:05:59;;;;;;;;;;;;;;;-0.83;100.00;100770.09;5002660;28;19918;-80
2021/12/14 03:08:26;;;;;;;;;;;;;;;-0.86;100.00;100771.00;5027347;28;19918;-81
2021/12/14 03:13:23;;;;;;;;;;;;;;;-0.84;100.00;100768.38;5026663;28;20373;-82
2021/12/14 03:15:52;;;;;;;;;;;;;;;-0.82;100.00;100770.94;5005707;28;20277;-81
2021/12/14 03:18:28;;;;;;;;;;;;;;;-0.80;100.00;100770.00;5002580;28;19984;-82
2021/12/14 03:20:56;;;;;;;;;;;;;;;-0.77;100.00;100767.31;5004777;28;19917;-81
2021/12/14 03:23:29;;;;;;;;;;;;;;;-0.71;100.00;100774.09;5000749;28;20246;-81
2021/12/14 03:25:56;;;;;;;;;;;;;;;-0.72;100.00;100775.81;5003031;28;19917;-82
2021/12/14 03:28:23;;;;;;;;;;;;;;;-0.76;100.00;100771.59;5002001;28;20378;-81
2021/12/14 03:30:52;;;;;;;;;;;;;;;-0.78;100.00;100755.25;5028479;28;19917;-80
2021/12/14 03:33:23;;;;;;;;;;;;;;;-0.78;100.00;100765.63;5001410;28;20027;-81
2021/12/14 03:35:57;;;;;;;;;;;;;;;-0.78;100.00;100760.44;5004129;28;19921;-81
2021/12/14 03:38:29;;;;;;;;;;;;;;;-0.75;100.00;100752.56;5003769;28;20469;-81
2021/12/14 03:40:56;;;;;;;;;;;;;;;-0.72;100.00;100760.28;5026811;28;20004;-81
2021/12/14 03:43:23;;;;;;;;;;;;;;;-0.70;100.00;100755.88;5001535;28;20020;-82
2021/12/14 03:45:49;;;;;;;;;;;;;;;-0.83;100.00;100759.72;5003396;28;20297;-82
2021/12/14 03:48:15;;;;;;;;;;;;;;;-1.05;100.00;100763.75;5001845;28;19922;-82
2021/12/14 03:50:41;;;;;;;;;;;;;;;-1.26;100.00;100760.00;5028761;28;20391;-81
2021/12/14 03:53:11;;;;;;;;;;;;;;;-1.44;100.00;100761.31;5001886;28;20156;-81
2021/12/14 03:55:40;;;;;;;;;;;;;;;-1.51;100.00;100753.72;5002959;28;20016;-80
2021/12/14 03:58:22;;;;;;;;;;;;;;;-1.49;100.00;100752.81;5000843;28;19914;-81
2021/12/14 04:00:53;;;;;;;;;;;;;;;-1.41;100.00;100750.88;4997296;28;19921;-82
2021/12/14 04:03:19;;;;;;;;;;;;;;;-1.39;100.00;100748.25;5005472;28;19972;-82
2021/12/14 04:06:02;;;;;;;;;;;;;;;-1.35;100.00;100753.31;5002107;28;19918;-81
2021/12/14 04:08:28;;;;;;;;;;;;;;;-1.30;100.00;100753.22;5026657;28;20020;-81
2021/12/14 04:10:56;;;;;;;;;;;;;;;-1.25;100.00;100753.94;5002159;28;20379;-79
2021/12/14 04:13:25;;;;;;;;;;;;;;;-1.18;100.00;100754.63;5004076;28;20012;-81
2021/12/14 04:15:53;;;;;;;;;;;;;;;-1.16;100.00;100745.06;5000215;28;20016;-81
2021/12/14 04:18:19;;;;;;;;;;;;;;;-1.25;100.00;100749.59;5000269;28;19913;-82
2021/12/14 04:20:46;;;;;;;;;;;;;;;-1.27;100.00;100753.97;5003752;28;19963;-82
2021/12/14 04:23:13;;;;;;;;;;;;;;;-1.35;100.00;100750.72;4999739;28;19953;-82
2021/12/14 04:25:39;;;;;;;;;;;;;;;-1.41;100.00;100750.88;5002365;28;19981;-81
2021/12/14 04:28:11;;;;;;;;;;;;;;;-1.38;100.00;100761.16;5000061;28;19928;-83
2021/12/14 04:30:36;;;;;;;;;;;;;;;-1.30;100.00;100764.41;5002403;28;20286;-82
2021/12/14 04:33:04;;;;;;;;;;;;;;;-1.26;100.00;100760.84;5000615;28;20315;-81
2021/12/14 04:35:34;;;;;;;;;;;;;;;-1.25;100.00;100757.38;5000554;28;19949;-82
2021/12/14 04:38:07;;;;;;;;;;;;;;;-1.20;100.00;100756.41;5000594;28;19924;-82
2021/12/14 04:54:05;;;;;;;;;;;;;;;-1.19;100.00;100750.34;5000013;28;19964;-82
2021/12/14 04:56:42;;;;;;;;;;;;;;;-1.16;100.00;100748.50;5001029;28;20296;-82
2021/12/14 04:59:27;;;;;;;;;;;;;;;-1.13;100.00;100747.59;4999210;28;20144;-82
2021/12/14 05:01:57;;;;;;;;;;;;;;;-1.17;100.00;100748.53;4997258;28;20013;-80
2021/12/14 05:04:42;;;;;;;;;;;;;;;-1.21;100.00;100757.28;4995197;28;20263;-83
2021/12/14 05:09:52;;;;;;;;;;;;;;;-1.16;100.00;100763.19;5001624;28;19968;-82
2021/12/14 05:12:28;;;;;;;;;;;;;;;-1.12;100.00;100764.84;4999187;28;20626;-82
2021/12/14 05:15:07;;;;;;;;;;;;;;;-1.13;100.00;100765.72;4999255;28;19917;-82
2021/12/14 05:17:36;;;;;;;;;;;;;;;-1.19;100.00;100765.88;5001485;28;19964;-82
2021/12/14 05:20:03;;;;;;;;;;;;;;;-1.23;100.00;100771.13;5000723;28;19944;-82
2021/12/14 05:22:33;;;;;;;;;;;;;;;-1.19;100.00;100771.91;5000583;28;19917;-81
2021/12/14 05:25:03;;;;;;;;;;;;;;;-1.21;100.00;100768.50;5005204;28;19971;-82
2021/12/14 05:27:34;;;;;;;;;;;;;;;-1.32;100.00;100765.34;5002483;28;20433;-81
2021/12/14 05:30:06;;;;;;;;;;;;;;;-1.37;100.00;100768.03;5003073;28;19913;-82
2021/12/14 05:32:33;;;;;;;;;;;;;;;-1.47;100.00;100763.97;5000912;28;19924;-82
2021/12/14 05:35:00;;;;;;;;;;;;;;;-1.44;100.00;100765.63;5024353;28;19944;-82
2021/12/14 05:37:29;;;;;;;;;;;;;;;-1.41;100.00;100763.81;5002843;28;20013;-83
2021/12/14 05:40:01;;;;;;;;;;;;;;;-1.35;100.00;100768.84;5000865;28;20634;-83
2021/12/14 05:45:21;;;;;;;;;;;;;;;-1.38;100.00;100778.44;5019630;28;20352;-83
2021/12/14 05:47:51;;;;;;;;;;;;;;;-1.42;100.00;100777.66;4998157;28;19917;-81
2021/12/14 05:50:34;;;;;;;;;;;;;;;-1.37;100.00;100783.59;5000354;28;20024;-82
2021/12/14 05:53:00;;;;;;;;;;;;;;;-1.37;100.00;100773.22;4999828;28;20392;-83
2021/12/14 05:55:28;;;;;;;;;;;;;;;-1.33;100.00;100772.25;5025258;28;19914;-84
2021/12/14 05:57:55;;;;;;;;;;;;;;;-1.34;100.00;100783.50;5000797;28;19925;-84
2021/12/14 06:00:21;;;;;;;;;;;;;;;-1.38;100.00;100781.88;5023626;28;20325;-83
2021/12/14 06:02:58;;;;;;;;;;;;;;;-1.45;100.00;100784.63;5024479;28;20285;-83
2021/12/14 06:05:27;;;;;;;;;;;;;;;-1.48;100.00;100785.59;4999875;28;19917;-78
2021/12/14 06:07:53;;;;;;;;;;;;;;;-1.42;100.00;100785.44;5025021;28;20004;-80
2021/12/14 06:10:21;;;;;;;;;;;;;;;-1.50;100.00;100792.53;4997894;28;20440;-81
2021/12/14 06:12:46;;;;;;;;;;;;;;;-1.59;100.00;100803.09;4998896;28;19976;-81
2021/12/14 06:15:17;;;;;;;;;;;;;;;-1.69;100.00;100802.47;4999229;28;20024;-86
2021/12/14 06:17:44;;;;;;;;;;;;;;;-1.72;100.00;100806.88;5022020;28;20389;-83
2021/12/14 06:20:35;;;;;;;;;;;;;;;-1.72;100.00;100804.28;4998410;28;19921;-83
2021/12/14 06:23:06;;;;;;;;;;;;;;;-1.74;100.00;100813.81;4998624;28;19929;-83
2021/12/14 06:25:50;;;;;;;;;;;;;;;-1.70;100.00;100810.25;4996393;28;20008;-83
2021/12/14 06:28:21;;;;;;;;;;;;;;;-1.66;100.00;100822.25;4668092;28;10000318;-81
2021/12/14 06:30:46;;;;;;;;;;;;;;;-1.58;100.00;100820.31;4999445;28;19984;-84
2021/12/14 06:33:12;;;;;;;;;;;;;;;-1.57;100.00;100819.44;4977188;28;19987;-81
2021/12/14 06:35:46;;;;;;;;;;;;;;;-1.60;100.00;100806.59;4999255;28;19944;-84
2021/12/14 06:40:45;;;;;;;;;;;;;;;-1.71;100.00;100808.56;5025447;28;19925;-85
2021/12/14 06:43:12;;;;;;;;;;;;;;;-1.66;100.00;100807.59;5000732;28;19921;-83
2021/12/14 06:45:59;;;;;;;;;;;;;;;-1.75;100.00;100812.09;4987714;28;20041;-82
2021/12/14 06:48:28;;;;;;;;;;;;;;;-1.96;100.00;100812.59;4993189;28;19922;-83
2021/12/14 06:50:57;;;;;;;;;;;;;;;-2.00;100.00;100811.78;4996559;28;19987;-83
2021/12/14 06:53:45;;;;;;;;;;;;;;;-2.10;100.00;100818.91;4998131;28;19925;-82
2021/12/14 06:56:29;;;;;;;;;;;;;;;-2.08;100.00;100819.75;4651807;28;10000100;-81
2021/12/14 06:59:20;;;;;;;;;;;;;;;-2.01;100.00;100824.78;5004607;28;20269;-81
2021/12/14 07:02:01;;;;;;;;;;;;;;;-1.94;100.00;100819.41;5030182;28;19939;-82
2021/12/14 07:04:30;;;;;;;;;;;;;;;-1.87;100.00;100814.97;5003966;28;20053;-82
2021/12/14 07:07:17;;;;;;;;;;;;;;;-1.87;100.00;100814.97;5004761;28;19987;-82
2021/12/14 07:09:47;;;;;;;;;;;;;;;-1.84;100.00;100823.53;5017169;28;19918;-82
2021/12/14 07:12:14;;;;;;;;;;;;;;;-1.80;100.00;100829.47;5005815;28;20022;-82
2021/12/14 07:14:39;;;;;;;;;;;;;;;-1.79;100.00;100819.09;5003065;28;19918;-81
2021/12/14 07:17:16;;;;;;;;;;;;;;;-1.80;100.00;100829.47;5004228;28;19924;-81
2021/12/14 07:19:43;;;;;;;;;;;;;;;-1.75;100.00;100827.63;5002245;28;19924;-83
2021/12/14 07:22:32;;;;;;;;;;;;;;;-1.78;100.00;100822.53;5003295;28;19937;-82
2021/12/14 07:25:12;;;;;;;;;;;;;;;-1.75;100.00;100827.63;5001465;28;19921;-81
2021/12/14 07:27:45;;;;;;;;;;;;;;;-1.70;100.00;100825.78;5001706;28;19926;-81
2021/12/14 07:30:31;;;;;;;;;;;;;;;-1.65;100.00;100813.63;5003902;28;19917;-82
2021/12/14 07:33:01;;;;;;;;;;;;;;;-1.64;100.00;100825.63;5001025;28;20377;-83
2021/12/14 07:35:59;;;;;;;;;;;;;;;-1.65;100.00;100826.56;5003866;28;19964;-83
2021/12/14 07:38:40;;;;;;;;;;;;;;;-1.66;100.00;100827.44;4997841;28;20021;-82
2021/12/14 07:41:11;;;;;;;;;;;;;;;-1.70;100.00;100830.97;5009635;28;19925;-82
2021/12/14 07:43:41;;;;;;;;;;;;;;;-1.70;100.00;100836.13;5004791;28;20030;-82
2021/12/14 07:46:15;;;;;;;;;;;;;;;-1.67;100.00;100836.94;5002627;28;19917;-81
2021/12/14 07:48:48;;;;;;;;;;;;;;;-1.61;100.00;100835.94;5005852;28;19917;-82
2021/12/14 07:51:15;;;;;;;;;;;;;;;-1.54;100.00;100831.47;5018206;28;19944;-81
2021/12/14 07:53:43;;;;;;;;;;;;;;;-1.49;100.00;100835.66;5006911;28;19924;-83
2021/12/14 07:56:20;;;;;;;;;;;;;;;-1.41;100.00;100838.91;5004875;28;19921;-82
2021/12/14 07:58:47;;;;;;;;;;;;;;;-1.31;100.00;100840.41;5000631;28;19918;-81
2021/12/14 08:01:14;;;;;;;;;;;;;;;-1.25;100.00;100836.81;5006239;28;19921;-83
2021/12/14 08:03:40;;;;;;;;;;;;;;;-1.24;100.00;100831.56;5002513;28;19971;-82
2021/12/14 08:06:10;;;;;;;;;;;;;;;-1.26;100.00;100828.19;5005950;28;20359;-81
2021/12/14 08:08:48;;;;;;;;;;;;;;;-1.20;100.00;100831.50;5001964;28;19922;-82
2021/12/14 08:14:32;;;;;;;;;;;;;;;-0.96;100.00;100843.84;5026133;28;19917;-81
2021/12/14 08:16:59;;;;;;;;;;;;;;;-0.89;100.00;100841.06;5007622;28;19928;-82
2021/12/14 08:19:30;;;;;;;;;;;;;;;-0.92;100.00;100853.22;5006845;28;19917;-80
2021/12/14 08:21:56;;;;;;;;;;;;;;;-0.94;100.00;100844.63;5001961;28;19918;-82
2021/12/14 08:24:21;;;;;;;;;;;;;;;-0.95;100.00;100832.59;5003273;28;19975;-82
2021/12/14 08:26:50;;;;;;;;;;;;;;;-0.89;100.00;100832.44;5005784;28;19921;-81
2021/12/14 08:29:17;;;;;;;;;;;;;;;-0.77;100.00;100839.03;4998263;28;19922;-83
2021/12/14 08:31:49;;;;;;;;;;;;;;;-0.70;100.00;100845.75;5004907;28;19936;-81
2021/12/14 08:34:19;;;;;;;;;;;;;;;-0.63;100.00;100855.91;4998247;28;20001;-81
2021/12/14 08:36:46;;;;;;;;;;;;;;;-0.64;100.00;100851.63;4997173;28;19913;-82
2021/12/14 08:39:15;;;;;;;;;;;;;;;-0.54;100.00;100854.84;5003885;28;20426;-81
2021/12/14 08:41:56;;;;;;;;;;;;;;;-0.47;100.00;100857.19;5001620;28;20463;-82
2021/12/14 08:44:35;;;;;;;;;;;;;;;-0.32;100.00;100849.91;4997850;28;19925;-82
2021/12/14 08:47:03;;;;;;;;;;;;;;;-0.19;100.00;100843.47;5001083;28;19917;-81
2021/12/14 08:49:29;;;;;;;;;;;;;;;-0.08;100.00;100844.00;5003020;28;20013;-82
2021/12/14 08:51:54;;;;;;;;;;;;;;;0.01;100.00;100843.72;5003200;28;20028;-82
2021/12/14 08:54:22;;;;;;;;;;;;;;;0.09;100.00;100841.78;5001074;28;19971;-82
2021/12/14 08:56:47;;;;;;;;;;;;;;;0.17;100.00;100845.00;5004398;28;20014;-82
2021/12/14 08:59:12;;;;;;;;;;;;;;;0.24;100.00;100851.69;5000805;28;19980;-82
2021/12/14 09:01:42;;;;;;;;;;;;;;;0.33;100.00;100846.22;5004000;28;20423;-80
2021/12/14 09:04:10;;;;;;;;;;;;;;;0.38;100.00;100844.34;5001835;28;20035;-81
2021/12/14 09:06:37;;;;;;;;;;;;;;;0.40;100.00;100847.75;5003349;28;19917;-80
2021/12/14 09:09:07;;;;;;;;;;;;;;;0.44;100.00;100851.09;5001572;28;20258;-80
2021/12/14 09:11:36;;;;;;;;;;;;;;;0.51;100.00;100847.41;5002871;28;20289;-82
2021/12/14 09:14:03;;;;;;;;;;;;;;;0.59;100.00;100854.97;5000736;28;19924;-82
2021/12/14 09:16:29;;;;;;;;;;;;;;;0.63;100.00;100859.16;5003626;28;20436;-82
2021/12/14 09:19:04;;;;;;;;;;;;;;;0.61;100.00;100860.94;5001736;28;19917;-82
2021/12/14 09:21:32;;;;;;;;;;;;;;;0.64;100.00;100860.84;5001958;28;20266;-82
2021/12/14 09:24:05;;;;;;;;;;;;;;;0.70;100.00;100855.47;5001137;28;19976;-82
2021/12/14 09:26:34;;;;;;;;;;;;;;;0.83;100.00;100859.34;5001908;28;19917;-83
2021/12/14 09:29:00;;;;;;;;;;;;;;;0.93;100.00;100852.97;5001980;28;19933;-82
2021/12/14 09:31:27;;;;;;;;;;;;;;;1.05;100.00;100867.31;5002861;28;19925;-82
2021/12/14 09:33:55;;;;;;;;;;;;;;;1.13;100.00;100860.94;4999867;28;20285;-82
2021/12/14 09:36:20;;;;;;;;;;;;;;;1.21;100.00;100848.53;5003416;28;19924;-81
2021/12/14 09:38:51;;;;;;;;;;;;;;;1.30;100.00;100846.53;5000527;28;20313;-81
2021/12/14 09:41:18;;;;;;;;;;;;;;;1.38;100.00;100844.50;4996650;28;19932;-80
2021/12/14 09:43:46;;;;;;;;;;;;;;;1.45;100.00;100836.44;5027233;28;19917;-81
2021/12/14 09:46:11;;;;;;;;;;;;;;;1.54;100.00;100843.03;5004624;28;20367;-82
2021/12/14 09:48:39;;;;;;;;;;;;;;;1.59;100.00;100848.97;5001291;28;20004;-82
2021/12/14 09:51:08;;;;;;;;;;;;;;;1.67;100.00;100846.91;5002578;28;19922;-82
2021/12/14 09:53:35;;;;;;;;;;;;;;;1.76;100.00;100837.94;5026050;28;19989;-81
2021/12/14 09:56:00;;;;;;;;;;;;;;;1.87;100.00;100844.44;5001100;28;19917;-81
2021/12/14 09:58:28;;;;;;;;;;;;;;;1.99;100.00;100838.78;5024649;28;19937;-81
2021/12/14 10:01:06;;;;;;;;;;;;;;;2.12;100.00;100835.72;5002230;28;19917;-82
2021/12/14 10:03:32;;;;;;;;;;;;;;;2.25;100.00;100831.72;5002397;28;19932;-81
2021/12/14 10:06:00;;;;;;;;;;;;;;;2.41;100.00;100825.03;5002489;28;19928;-82
2021/12/14 10:08:29;;;;;;;;;;;;;;;2.50;100.00;100824.66;5001293;28;20394;-81
2021/12/14 10:11:04;;;;;;;;;;;;;;;2.56;100.00;100816.56;5024118;28;20363;-82
2021/12/14 10:13:31;;;;;;;;;;;;;;;2.63;100.00;100810.22;5001876;28;19917;-81
2021/12/14 10:15:57;;;;;;;;;;;;;;;2.64;100.00;100804.09;5003544;28;19918;-84
2021/12/14 10:18:30;;;;;;;;;;;;;;;2.70;100.00;100796.03;5003392;28;20015;-81
2021/12/14 10:21:06;;;;;;;;;;;;;;;2.76;100.00;100806.22;5000862;28;20009;-81
2021/12/14 10:23:33;;;;;;;;;;;;;;;2.85;100.00;100804.97;5001904;28;20293;-81
2021/12/14 10:25:58;;;;;;;;;;;;;;;2.88;100.00;100807.47;4999389;28;20290;-81
2021/12/14 10:28:25;;;;;;;;;;;;;;;2.95;100.00;100806.25;5000987;28;19924;-80
2021/12/14 10:30:55;;;;;;;;;;;;;;;3.04;100.00;100794.63;4998301;28;19914;-81
2021/12/14 10:33:22;;;;;;;;;;;;;;;3.15;100.00;100793.25;5003221;28;19917;-81
2021/12/14 10:35:52;;;;;;;;;;;;;;;3.25;100.00;100786.72;5026745;28;20337;-83
2021/12/14 10:38:50;;;;;;;;;;;;;;;3.33;100.00;100775.94;5006982;28;20436;-81
2021/12/14 10:43:54;;;;;;;;;;;;;;;3.48;100.00;100780.47;5001767;28;19953;-81
2021/12/14 10:46:31;;;;;;;;;;;;;;;3.55;100.00;100775.84;5006163;28;20444;-82
2021/12/14 10:48:57;;;;;;;;;;;;;;;3.60;100.00;100785.16;5003117;28;19968;-82
2021/12/14 10:51:25;;;;;;;;;;;;;;;3.67;100.00;100790.94;5006183;28;19928;-82
2021/12/14 10:53:52;;;;;;;;;;;;;;;3.74;100.00;100778.47;5003574;28;19993;-83
2021/12/14 10:56:20;;;;;;;;;;;;;;;3.74;100.00;100770.63;5006788;28;19921;-83
2021/12/14 10:58:47;;;;;;;;;;;;;;;3.82;100.00;100784.19;5002876;28;19957;-83
2021/12/14 11:01:18;;;;;;;;;;;;;;;3.86;100.00;100785.75;5006392;28;19960;-82
2021/12/14 11:03:46;;;;;;;;;;;;;;;3.93;100.00;100766.25;4998364;28;20061;-81
2021/12/14 11:06:13;;;;;;;;;;;;;;;4.00;100.00;100765.06;5006926;28;19976;-82
2021/12/14 11:08:57;;;;;;;;;;;;;;;4.05;100.00;100766.53;5004890;28;19917;-84
2021/12/14 11:11:31;;;;;;;;;;;;;;;4.13;100.00;100763.53;5015224;22;19926;-85
2021/12/14 11:14:01;;;;;;;;;;;;;;;4.19;100.00;100752.81;5015852;28;19945;-85
2021/12/14 11:19:45;;;;;;;;;;;;;;;4.32;100.00;100748.69;5012448;28;19980;-85
2021/12/14 11:22:16;;;;;;;;;;;;;;;4.40;100.00;100751.78;5016013;28;19921;-84
2021/12/14 11:24:43;;;;;;;;;;;;;;;4.49;100.00;100755.69;5017646;28;19963;-81
2021/12/14 11:27:20;;;;;;;;;;;;;;;4.57;100.00;100758.81;5016732;28;20068;-84
2021/12/14 11:29:49;;;;;;;;;;;;;;;4.66;100.00;100753.09;5009422;28;20008;-84
2021/12/14 11:32:17;;;;;;;;;;;;;;;4.76;100.00;100743.03;5009171;28;19968;-83
2021/12/14 11:34:45;;;;;;;;;;;;;;;4.89;100.00;100738.88;5016991;28;19972;-83
2021/12/14 11:37:15;;;;;;;;;;;;;;;5.05;100.00;100734.56;5017730;28;19948;-82
2021/12/14 11:39:45;;;;;;;;;;;;;;;5.21;100.00;100724.13;5016107;28;20020;-85
2021/12/14 11:42:31;;;;;;;;;;;;;;;5.35;100.00;100727.72;5012920;28;19921;-84
2021/12/14 11:44:56;;;;;;;;;;;;;;;5.52;100.00;100733.84;5013353;28;19926;-84
2021/12/14 11:47:46;;;;;;;;;;;;;;;5.70;100.00;100727.59;5017947;28;19980;-85
2021/12/14 11:50:16;;;;;;;;;;;;;;;5.89;100.00;100733.53;5015084;28;19929;-85
2021/12/14 11:53:02;;;;;;;;;;;;;;;6.04;100.00;100718.75;5013741;28;19921;-85
2021/12/14 11:55:33;;;;;;;;;;;;;;;6.22;99.40;100722.13;5010553;28;20004;-84
2021/12/14 11:58:16;;;;;;;;;;;;;;;6.37;98.41;100724.72;5014533;28;19917;-84
2021/12/14 12:00:51;;;;;;;;;;;;;;;6.51;96.29;100716.06;5015310;28;20455;-83
2021/12/14 12:03:30;;;;;;;;;;;;;;;6.64;95.87;100706.56;5007602;28;19939;-84
2021/12/14 12:06:03;;;;;;;;;;;;;;;6.77;94.40;100712.78;5010038;28;19917;-84
2021/12/14 12:11:14;;;;;;;;;;;;;;;7.05;93.14;100704.09;5003945;28;19997;-84
2021/12/14 12:13:41;;;;;;;;;;;;;;;7.19;92.32;100698.81;5015388;28;19967;-83
2021/12/14 12:16:15;;;;;;;;;;;;;;;7.29;87.09;100688.63;5015090;28;20313;-84
2021/12/14 12:19:00;;;;;;;;;;;;;;;7.42;88.12;100684.31;5013751;28;19968;-84
2021/12/14 12:21:27;;;;;;;;;;;;;;;7.56;87.73;100676.41;5013368;28;20327;-83
2021/12/14 12:23:52;;;;;;;;;;;;;;;7.70;86.99;100668.50;5013353;28;19918;-83
2021/12/14 12:26:20;;;;;;;;;;;;;;;7.81;85.67;100655.50;5020772;28;19928;-83
2021/12/14 12:28:47;;;;;;;;;;;;;;;7.91;84.55;100654.91;5018580;28;20008;-84
2021/12/14 12:31:15;;;;;;;;;;;;;;;8.02;84.01;100652.44;5032116;28;19936;-82
2021/12/14 12:33:45;;;;;;;;;;;;;;;8.12;84.43;100649.13;5029250;28;19913;-84
2021/12/14 12:36:11;;;;;;;;;;;;;;;8.25;84.70;100643.06;5035902;28;19917;-83
2021/12/14 12:38:42;;;;;;;;;;;;;;;8.36;83.46;100641.44;5075859;23;19971;-87
2021/12/14 12:41:24;;;;;;;;;;;;;;;8.47;83.15;100628.41;5035316;28;19912;-85
2021/12/14 12:43:53;;;;;;;;;;;;;;;8.62;82.77;100626.50;5022856;28;19910;-86
2021/12/14 12:46:54;;;;;;;;;;;;;;;8.77;82.17;100624.63;5013554;28;19965;-84
2021/12/14 12:49:26;;;;;;;49.10;31.00;;;;;;;8.87;81.60;100609.88;5003997;28;19929;-86
2021/12/14 12:51:58;;;;;;;44.17;30.92;;;;;;;8.96;80.17;100601.34;4998647;28;20031;-85
2021/12/14 12:54:29;;;;;;;49.80;30.45;;;;;;;9.05;79.17;100603.34;4989662;28;20053;-84
2021/12/14 12:57:12;;;;;;;;;;;;;;;9.11;76.93;100592.38;5012416;28;20042;-84
2021/12/14 12:59:55;;;;;;;45.17;30.23;;;;;;;9.17;77.41;100586.69;5011759;28;19913;-84
2021/12/14 13:02:27;;;;;;;41.30;29.70;;;;;;;9.26;78.57;100596.53;5011254;28;20049;-82
2021/12/14 13:05:30;;;;;;;43.88;29.95;;;;;;;9.35;77.28;100595.91;5386482;22;20256;-83
2021/12/14 13:08:46;;;;;;;49.08;30.55;;;;;;;9.44;76.88;100589.97;5009109;28;20034;-84
2021/12/14 13:18:47;;;;;;;47.20;30.27;;;;;;;9.70;76.40;100590.72;4980772;28;20402;-85
2021/12/14 13:23:43;;;;;;;42.58;30.15;;;;;;;9.83;74.97;100575.69;5020053;28;20384;-86
2021/12/14 13:27:14;;;;;;;49.00;31.75;;;;;;;9.90;74.20;100581.31;5020495;28;20053;-86
2021/12/14 13:30:11;;;;;;;42.58;29.20;;;;;;;9.99;74.88;100570.13;4978689;28;20060;-88
2021/12/14 13:32:40;;;;;;;40.58;29.20;;;;;;;10.12;74.38;100565.59;5017529;28;20041;-88
2021/12/14 13:35:27;;;;;;;45.17;30.38;;;;;;;10.19;73.03;100556.28;5018435;28;20034;-89
2021/12/14 13:38:00;;;;;;;38.58;28.90;;;;;;;10.23;73.30;100557.75;5018544;28;20038;-87